sensor_id;sensor_type;location;lat;lon;timestamp;pressure;altitude;pressure_sealevel;temperature;humidity
64967;BME280;51710;38.732;-121.358;2022-07-29T00:02:12;100241.66;;;38.32;27.22
64967;BME280;51710;38.732;-121.358;2022-07-29T00:04:39;100234.91;;;38.33;27.32
64967;BME280;51710;38.732;-121.358;2022-07-29T00:07:05;100242.13;;;38.34;27.02
64967;BME280;51710;38.732;-121.358;2022-07-29T00:09:32;100235.81;;;38.37;26.97
64967;BME280;51710;38.732;-121.358;2022-07-29T00:12:00;100235.72;;;38.33;27.09
64967;BME280;51710;38.732;-121.358;2022-07-29T00:14:27;100237.59;;;38.29;27.59
64967;BME280;51710;38.732;-121.358;2022-07-29T00:16:54;100237.84;;;38.24;27.63
64967;BME280;51710;38.732;-121.358;2022-07-29T00:19:20;100233.00;;;38.21;28.07
64967;BME280;51710;38.732;-121.358;2022-07-29T00:21:47;100242.50;;;38.20;28.19
64967;BME280;51710;38.732;-121.358;2022-07-29T00:24:13;100241.56;;;38.16;28.33
64967;BME280;51710;38.732;-121.358;2022-07-29T00:26:40;100239.03;;;38.11;29.07
64967;BME280;51710;38.732;-121.358;2022-07-29T00:29:06;100236.84;;;38.04;29.48
64967;BME280;51710;38.732;-121.358;2022-07-29T00:31:32;100243.47;;;38.00;29.25
64967;BME280;51710;38.732;-121.358;2022-07-29T00:33:59;100232.22;;;37.96;29.56
64967;BME280;51710;38.732;-121.358;2022-07-29T00:36:25;100235.34;;;37.95;29.62
64967;BME280;51710;38.732;-121.358;2022-07-29T00:38:51;100222.84;;;37.89;29.40
64967;BME280;51710;38.732;-121.358;2022-07-29T00:41:18;100235.16;;;37.76;28.96
64967;BME280;51710;38.732;-121.358;2022-07-29T00:43:45;100226.59;;;37.57;29.35
64967;BME280;51710;38.732;-121.358;2022-07-29T00:46:11;100235.28;;;37.43;29.96
64967;BME280;51710;38.732;-121.358;2022-07-29T00:48:38;100229.38;;;37.33;29.77
64967;BME280;51710;38.732;-121.358;2022-07-29T00:51:06;100234.00;;;37.29;30.08
64967;BME280;51710;38.732;-121.358;2022-07-29T00:53:34;100232.56;;;37.22;30.15
64967;BME280;51710;38.732;-121.358;2022-07-29T00:56:01;100231.19;;;37.16;29.98
64967;BME280;51710;38.732;-121.358;2022-07-29T00:58:28;100223.78;;;37.08;31.06
64967;BME280;51710;38.732;-121.358;2022-07-29T01:00:54;100229.41;;;37.00;30.36
64967;BME280;51710;38.732;-121.358;2022-07-29T01:03:21;100227.09;;;36.90;31.32
64967;BME280;51710;38.732;-121.358;2022-07-29T01:05:47;100234.03;;;36.84;31.07
64967;BME280;51710;38.732;-121.358;2022-07-29T01:08:15;100234.22;;;36.79;31.15
64967;BME280;51710;38.732;-121.358;2022-07-29T01:10:43;100233.63;;;36.73;30.82
64967;BME280;51710;38.732;-121.358;2022-07-29T01:13:11;100232.69;;;36.69;31.17
64967;BME280;51710;38.732;-121.358;2022-07-29T01:15:46;100222.34;;;36.58;30.68
64967;BME280;51710;38.732;-121.358;2022-07-29T01:18:16;100223.94;;;36.47;31.17
64967;BME280;51710;38.732;-121.358;2022-07-29T01:21:15;100218.47;;;36.38;31.21
64967;BME280;51710;38.732;-121.358;2022-07-29T01:26:52;100218.72;;;36.25;31.21
64967;BME280;51710;38.732;-121.358;2022-07-29T01:29:43;100223.19;;;36.17;31.06
64967;BME280;51710;38.732;-121.358;2022-07-29T01:32:15;100219.47;;;36.13;31.47
64967;BME280;51710;38.732;-121.358;2022-07-29T01:34:48;100217.84;;;36.12;31.54
64967;BME280;51710;38.732;-121.358;2022-07-29T01:37:42;100216.91;;;36.08;31.26
64967;BME280;51710;38.732;-121.358;2022-07-29T01:40:11;100218.25;;;36.02;31.25
64967;BME280;51710;38.732;-121.358;2022-07-29T01:42:44;100211.97;;;35.93;31.24
64967;BME280;51710;38.732;-121.358;2022-07-29T01:45:20;100212.78;;;35.85;31.38
64967;BME280;51710;38.732;-121.358;2022-07-29T01:48:06;100220.38;;;35.76;31.00
64967;BME280;51710;38.732;-121.358;2022-07-29T01:50:50;100214.09;;;35.67;31.42
64967;BME280;51710;38.732;-121.358;2022-07-29T01:54:06;100221.16;;;35.56;31.93
64967;BME280;51710;38.732;-121.358;2022-07-29T01:56:33;100225.44;;;35.45;31.49
64967;BME280;51710;38.732;-121.358;2022-07-29T01:59:05;100218.66;;;35.34;31.58
64967;BME280;51710;38.732;-121.358;2022-07-29T02:01:33;100213.28;;;35.29;32.05
64967;BME280;51710;38.732;-121.358;2022-07-29T02:04:08;100222.09;;;35.31;31.87
64967;BME280;51710;38.732;-121.358;2022-07-29T02:06:42;100223.69;;;35.40;31.35
64967;BME280;51710;38.732;-121.358;2022-07-29T02:09:13;100221.41;;;35.42;30.93
64967;BME280;51710;38.732;-121.358;2022-07-29T02:11:44;100219.28;;;35.39;31.05
64967;BME280;51710;38.732;-121.358;2022-07-29T02:14:14;100218.66;;;35.34;30.94
64967;BME280;51710;38.732;-121.358;2022-07-29T02:16:42;100221.47;;;35.25;31.01
64967;BME280;51710;38.732;-121.358;2022-07-29T02:19:10;100217.44;;;35.14;31.59
64967;BME280;51710;38.732;-121.358;2022-07-29T02:21:40;100217.31;;;35.02;31.13
64967;BME280;51710;38.732;-121.358;2022-07-29T02:24:10;100218.97;;;34.94;31.16
64967;BME280;51710;38.732;-121.358;2022-07-29T02:26:39;100223.22;;;34.92;31.40
64967;BME280;51710;38.732;-121.358;2022-07-29T02:29:06;100224.19;;;34.79;31.40
64967;BME280;51710;38.732;-121.358;2022-07-29T02:31:35;100234.00;;;34.68;31.43
64967;BME280;51710;38.732;-121.358;2022-07-29T02:34:07;100231.91;;;34.56;31.44
64967;BME280;51710;38.732;-121.358;2022-07-29T02:36:34;100228.97;;;34.44;31.78
64967;BME280;51710;38.732;-121.358;2022-07-29T02:39:03;100229.97;;;34.31;31.62
64967;BME280;51710;38.732;-121.358;2022-07-29T02:41:35;100230.91;;;34.18;31.98
64967;BME280;51710;38.732;-121.358;2022-07-29T02:44:12;100237.78;;;34.12;32.42
64967;BME280;51710;38.732;-121.358;2022-07-29T02:55:03;100244.19;;;33.65;34.16
64967;BME280;51710;38.732;-121.358;2022-07-29T02:57:36;100238.69;;;33.43;34.40
64967;BME280;51710;38.732;-121.358;2022-07-29T03:00:09;100239.44;;;33.18;34.03
64967;BME280;51710;38.732;-121.358;2022-07-29T03:02:42;100239.97;;;32.97;34.21
64967;BME280;51710;38.732;-121.358;2022-07-29T03:05:15;100241.94;;;32.75;34.94
64967;BME280;51710;38.732;-121.358;2022-07-29T03:07:45;100244.19;;;32.51;34.95
64967;BME280;51710;38.732;-121.358;2022-07-29T03:10:15;100241.72;;;32.27;34.79
64967;BME280;51710;38.732;-121.358;2022-07-29T03:12:42;100242.81;;;32.04;35.65
64967;BME280;51710;38.732;-121.358;2022-07-29T03:15:10;100240.78;;;31.82;35.72
64967;BME280;51710;38.732;-121.358;2022-07-29T03:17:37;100241.44;;;31.66;35.69
64967;BME280;51710;38.732;-121.358;2022-07-29T03:20:07;100245.13;;;31.48;36.21
64967;BME280;51710;38.732;-121.358;2022-07-29T03:22:39;100251.81;;;31.28;36.33
64967;BME280;51710;38.732;-121.358;2022-07-29T03:25:15;100254.03;;;31.13;36.20
64967;BME280;51710;38.732;-121.358;2022-07-29T03:27:42;100252.19;;;30.95;36.23
64967;BME280;51710;38.732;-121.358;2022-07-29T03:30:10;100260.16;;;30.77;36.48
64967;BME280;51710;38.732;-121.358;2022-07-29T03:32:37;100259.59;;;30.62;36.44
64967;BME280;51710;38.732;-121.358;2022-07-29T03:35:05;100262.31;;;30.48;36.65
64967;BME280;51710;38.732;-121.358;2022-07-29T03:37:32;100258.75;;;30.29;36.76
64967;BME280;51710;38.732;-121.358;2022-07-29T03:40:02;100265.56;;;30.13;36.70
64967;BME280;51710;38.732;-121.358;2022-07-29T03:42:31;100271.28;;;29.98;37.09
64967;BME280;51710;38.732;-121.358;2022-07-29T03:45:03;100265.72;;;29.84;37.32
64967;BME280;51710;38.732;-121.358;2022-07-29T03:47:35;100271.91;;;29.71;37.00
64967;BME280;51710;38.732;-121.358;2022-07-29T03:50:06;100279.72;;;29.59;37.43
64967;BME280;51710;38.732;-121.358;2022-07-29T03:52:34;100278.50;;;29.47;37.73
64967;BME280;51710;38.732;-121.358;2022-07-29T03:55:09;100293.47;;;29.36;37.66
64967;BME280;51710;38.732;-121.358;2022-07-29T03:57:46;100294.66;;;29.25;37.70
64967;BME280;51710;38.732;-121.358;2022-07-29T04:00:14;100292.34;;;29.13;38.20
64967;BME280;51710;38.732;-121.358;2022-07-29T04:02:45;100306.97;;;28.99;38.37
64967;BME280;51710;38.732;-121.358;2022-07-29T04:05:15;100304.63;;;28.87;38.53
64967;BME280;51710;38.732;-121.358;2022-07-29T04:07:48;100305.50;;;28.77;38.48
64967;BME280;51710;38.732;-121.358;2022-07-29T04:10:17;100302.56;;;28.69;38.92
64967;BME280;51710;38.732;-121.358;2022-07-29T04:12:44;100302.59;;;28.64;38.82
64967;BME280;51710;38.732;-121.358;2022-07-29T04:15:11;100301.81;;;28.58;38.92
64967;BME280;51710;38.732;-121.358;2022-07-29T04:17:37;100298.00;;;28.49;39.09
64967;BME280;51710;38.732;-121.358;2022-07-29T04:20:04;100305.19;;;28.40;39.25
64967;BME280;51710;38.732;-121.358;2022-07-29T04:22:31;100306.69;;;28.28;39.80
64967;BME280;51710;38.732;-121.358;2022-07-29T04:24:58;100311.41;;;28.17;39.97
64967;BME280;51710;38.732;-121.358;2022-07-29T04:27:25;100316.91;;;28.07;39.76
64967;BME280;51710;38.732;-121.358;2022-07-29T04:29:51;100322.44;;;27.97;40.30
64967;BME280;51710;38.732;-121.358;2022-07-29T04:32:17;100320.81;;;27.86;40.61
64967;BME280;51710;38.732;-121.358;2022-07-29T04:34:44;100325.53;;;27.70;40.73
64967;BME280;51710;38.732;-121.358;2022-07-29T04:37:12;100325.28;;;27.62;41.03
64967;BME280;51710;38.732;-121.358;2022-07-29T04:39:38;100330.22;;;27.55;41.25
64967;BME280;51710;38.732;-121.358;2022-07-29T04:42:05;100330.81;;;27.47;41.31
64967;BME280;51710;38.732;-121.358;2022-07-29T04:44:31;100339.84;;;27.37;41.76
64967;BME280;51710;38.732;-121.358;2022-07-29T04:46:58;100340.97;;;27.31;41.89
64967;BME280;51710;38.732;-121.358;2022-07-29T04:49:25;100340.13;;;27.21;41.89
64967;BME280;51710;38.732;-121.358;2022-07-29T04:51:51;100340.16;;;27.16;42.21
64967;BME280;51710;38.732;-121.358;2022-07-29T04:54:18;100352.72;;;27.07;42.23
64967;BME280;51710;38.732;-121.358;2022-07-29T04:56:45;100339.06;;;26.97;42.41
64967;BME280;51710;38.732;-121.358;2022-07-29T04:59:12;100346.16;;;26.88;42.47
64967;BME280;51710;38.732;-121.358;2022-07-29T05:01:38;100334.41;;;26.77;43.11
64967;BME280;51710;38.732;-121.358;2022-07-29T05:04:05;100341.22;;;26.70;43.12
64967;BME280;51710;38.732;-121.358;2022-07-29T05:06:31;100352.69;;;26.61;43.26
64967;BME280;51710;38.732;-121.358;2022-07-29T05:08:57;100353.75;;;26.55;43.26
64967;BME280;51710;38.732;-121.358;2022-07-29T05:11:23;100365.22;;;26.52;43.54
64967;BME280;51710;38.732;-121.358;2022-07-29T05:13:50;100363.03;;;26.49;43.45
64967;BME280;51710;38.732;-121.358;2022-07-29T05:16:16;100372.31;;;26.43;43.69
64967;BME280;51710;38.732;-121.358;2022-07-29T05:18:43;100370.09;;;26.35;43.82
64967;BME280;51710;38.732;-121.358;2022-07-29T05:21:09;100366.25;;;26.26;43.70
64967;BME280;51710;38.732;-121.358;2022-07-29T05:23:35;100368.13;;;26.21;43.92
64967;BME280;51710;38.732;-121.358;2022-07-29T05:26:05;100364.56;;;26.15;44.24
64967;BME280;51710;38.732;-121.358;2022-07-29T05:28:34;100369.44;;;26.08;44.09
64967;BME280;51710;38.732;-121.358;2022-07-29T05:31:01;100378.13;;;26.00;44.51
64967;BME280;51710;38.732;-121.358;2022-07-29T05:33:27;100390.13;;;25.94;44.55
64967;BME280;51710;38.732;-121.358;2022-07-29T05:35:53;100381.09;;;25.89;44.81
64967;BME280;51710;38.732;-121.358;2022-07-29T05:38:20;100386.28;;;25.85;44.86
64967;BME280;51710;38.732;-121.358;2022-07-29T05:40:46;100388.97;;;25.80;44.67
64967;BME280;51710;38.732;-121.358;2022-07-29T05:43:12;100381.56;;;25.76;45.34
64967;BME280;51710;38.732;-121.358;2022-07-29T05:45:39;100391.91;;;25.69;44.39
64967;BME280;51710;38.732;-121.358;2022-07-29T05:48:05;100389.97;;;25.64;45.12
64967;BME280;51710;38.732;-121.358;2022-07-29T05:50:32;100398.13;;;25.59;45.51
64967;BME280;51710;38.732;-121.358;2022-07-29T05:52:58;100392.88;;;25.52;45.29
64967;BME280;51710;38.732;-121.358;2022-07-29T05:55:24;100390.38;;;25.46;45.41
64967;BME280;51710;38.732;-121.358;2022-07-29T05:57:52;100387.06;;;25.39;45.44
64967;BME280;51710;38.732;-121.358;2022-07-29T06:00:18;100394.69;;;25.37;45.86
64967;BME280;51710;38.732;-121.358;2022-07-29T06:02:44;100391.88;;;25.32;45.96
64967;BME280;51710;38.732;-121.358;2022-07-29T06:05:11;100406.31;;;25.27;46.02
64967;BME280;51710;38.732;-121.358;2022-07-29T06:07:37;100397.81;;;25.19;46.05
64967;BME280;51710;38.732;-121.358;2022-07-29T06:10:04;100397.47;;;25.10;46.29
64967;BME280;51710;38.732;-121.358;2022-07-29T06:12:30;100409.13;;;25.06;46.63
64967;BME280;51710;38.732;-121.358;2022-07-29T06:14:57;100410.97;;;25.00;46.48
64967;BME280;51710;38.732;-121.358;2022-07-29T06:17:23;100414.22;;;24.97;46.65
64967;BME280;51710;38.732;-121.358;2022-07-29T06:19:50;100414.19;;;24.92;46.85
64967;BME280;51710;38.732;-121.358;2022-07-29T06:22:16;100410.59;;;24.87;46.85
64967;BME280;51710;38.732;-121.358;2022-07-29T06:24:43;100410.53;;;24.82;46.99
64967;BME280;51710;38.732;-121.358;2022-07-29T06:27:12;100412.97;;;24.78;46.83
64967;BME280;51710;38.732;-121.358;2022-07-29T06:29:39;100406.63;;;24.73;47.26
64967;BME280;51710;38.732;-121.358;2022-07-29T06:32:06;100407.59;;;24.62;47.34
64967;BME280;51710;38.732;-121.358;2022-07-29T06:34:35;100414.31;;;24.54;47.72
64967;BME280;51710;38.732;-121.358;2022-07-29T06:37:10;100408.00;;;24.48;47.55
64967;BME280;51710;38.732;-121.358;2022-07-29T06:39:37;100412.81;;;24.41;47.55
64967;BME280;51710;38.732;-121.358;2022-07-29T06:42:06;100414.34;;;24.32;48.08
64967;BME280;51710;38.732;-121.358;2022-07-29T06:44:33;100424.34;;;24.27;48.22
64967;BME280;51710;38.732;-121.358;2022-07-29T06:47:02;100423.47;;;24.21;48.13
64967;BME280;51710;38.732;-121.358;2022-07-29T06:49:28;100413.06;;;24.18;48.42
64967;BME280;51710;38.732;-121.358;2022-07-29T06:51:55;100413.59;;;24.15;48.64
64967;BME280;51710;38.732;-121.358;2022-07-29T06:54:22;100418.72;;;24.12;48.77
64967;BME280;51710;38.732;-121.358;2022-07-29T06:56:48;100405.31;;;24.05;48.87
64967;BME280;51710;38.732;-121.358;2022-07-29T06:59:14;100407.34;;;23.98;48.96
64967;BME280;51710;38.732;-121.358;2022-07-29T07:01:42;100416.44;;;23.87;49.10
64967;BME280;51710;38.732;-121.358;2022-07-29T07:04:09;100419.59;;;23.79;49.27
64967;BME280;51710;38.732;-121.358;2022-07-29T07:06:36;100424.91;;;23.69;49.54
64967;BME280;51710;38.732;-121.358;2022-07-29T07:09:03;100429.94;;;23.61;49.91
64967;BME280;51710;38.732;-121.358;2022-07-29T07:11:30;100435.78;;;23.53;49.72
64967;BME280;51710;38.732;-121.358;2022-07-29T07:13:56;100432.41;;;23.46;50.09
64967;BME280;51710;38.732;-121.358;2022-07-29T07:16:22;100429.03;;;23.38;50.12
64967;BME280;51710;38.732;-121.358;2022-07-29T07:18:49;100435.00;;;23.35;50.27
64967;BME280;51710;38.732;-121.358;2022-07-29T07:21:15;100441.97;;;23.31;50.42
64967;BME280;51710;38.732;-121.358;2022-07-29T07:23:44;100432.09;;;23.25;50.37
64967;BME280;51710;38.732;-121.358;2022-07-29T07:26:10;100436.84;;;23.18;50.57
64967;BME280;51710;38.732;-121.358;2022-07-29T07:28:36;100434.28;;;23.12;50.80
64967;BME280;51710;38.732;-121.358;2022-07-29T07:31:03;100433.13;;;23.08;50.93
64967;BME280;51710;38.732;-121.358;2022-07-29T07:33:29;100440.72;;;23.06;50.91
64967;BME280;51710;38.732;-121.358;2022-07-29T07:35:55;100436.25;;;23.00;51.07
64967;BME280;51710;38.732;-121.358;2022-07-29T07:38:22;100443.50;;;22.94;51.21
64967;BME280;51710;38.732;-121.358;2022-07-29T07:40:48;100451.53;;;22.89;51.47
64967;BME280;51710;38.732;-121.358;2022-07-29T07:43:14;100448.38;;;22.81;51.68
64967;BME280;51710;38.732;-121.358;2022-07-29T07:45:41;100447.13;;;22.72;52.00
64967;BME280;51710;38.732;-121.358;2022-07-29T07:48:07;100455.19;;;22.67;52.06
64967;BME280;51710;38.732;-121.358;2022-07-29T07:50:36;100455.09;;;22.62;52.12
64967;BME280;51710;38.732;-121.358;2022-07-29T07:53:03;100457.47;;;22.58;52.12
64967;BME280;51710;38.732;-121.358;2022-07-29T07:55:29;100455.00;;;22.57;52.26
64967;BME280;51710;38.732;-121.358;2022-07-29T07:57:56;100450.66;;;22.56;52.39
64967;BME280;51710;38.732;-121.358;2022-07-29T08:00:22;100451.06;;;22.53;52.42
64967;BME280;51710;38.732;-121.358;2022-07-29T08:02:48;100455.13;;;22.50;52.51
64967;BME280;51710;38.732;-121.358;2022-07-29T08:05:15;100452.88;;;22.47;52.70
64967;BME280;51710;38.732;-121.358;2022-07-29T08:07:46;100461.50;;;22.44;52.91
64967;BME280;51710;38.732;-121.358;2022-07-29T08:10:14;100458.44;;;22.41;52.97
64967;BME280;51710;38.732;-121.358;2022-07-29T08:13:05;100459.66;;;22.33;52.89
64967;BME280;51710;38.732;-121.358;2022-07-29T08:15:32;100449.16;;;22.25;53.15
64967;BME280;51710;38.732;-121.358;2022-07-29T08:17:59;100457.19;;;22.20;53.08
64967;BME280;51710;38.732;-121.358;2022-07-29T08:20:26;100464.97;;;22.16;53.26
64967;BME280;51710;38.732;-121.358;2022-07-29T08:22:52;100464.41;;;22.14;53.36
64967;BME280;51710;38.732;-121.358;2022-07-29T08:25:19;100465.72;;;22.12;53.56
64967;BME280;51710;38.732;-121.358;2022-07-29T08:27:47;100467.50;;;22.06;53.64
64967;BME280;51710;38.732;-121.358;2022-07-29T08:30:14;100469.25;;;22.01;53.86
64967;BME280;51710;38.732;-121.358;2022-07-29T08:32:40;100470.56;;;21.98;53.95
64967;BME280;51710;38.732;-121.358;2022-07-29T08:35:08;100468.91;;;21.97;54.08
64967;BME280;51710;38.732;-121.358;2022-07-29T08:37:34;100474.81;;;21.94;53.79
64967;BME280;51710;38.732;-121.358;2022-07-29T08:40:01;100480.72;;;21.91;54.11
64967;BME280;51710;38.732;-121.358;2022-07-29T08:42:27;100472.44;;;21.86;54.19
64967;BME280;51710;38.732;-121.358;2022-07-29T08:44:54;100470.69;;;21.80;54.74
64967;BME280;51710;38.732;-121.358;2022-07-29T08:47:21;100471.84;;;21.73;54.74
64967;BME280;51710;38.732;-121.358;2022-07-29T08:49:47;100474.19;;;21.69;55.02
64967;BME280;51710;38.732;-121.358;2022-07-29T08:52:14;100468.19;;;21.67;55.00
64967;BME280;51710;38.732;-121.358;2022-07-29T08:54:43;100466.41;;;21.61;54.97
64967;BME280;51710;38.732;-121.358;2022-07-29T08:57:13;100473.38;;;21.57;55.12
64967;BME280;51710;38.732;-121.358;2022-07-29T08:59:40;100473.00;;;21.54;55.24
64967;BME280;51710;38.732;-121.358;2022-07-29T09:02:16;100463.69;;;21.50;55.22
64967;BME280;51710;38.732;-121.358;2022-07-29T09:04:45;100474.75;;;21.48;55.58
64967;BME280;51710;38.732;-121.358;2022-07-29T09:07:15;100478.78;;;21.46;55.47
64967;BME280;51710;38.732;-121.358;2022-07-29T09:09:42;100478.19;;;21.44;55.49
64967;BME280;51710;38.732;-121.358;2022-07-29T09:12:12;100475.72;;;21.42;55.69
64967;BME280;51710;38.732;-121.358;2022-07-29T09:14:39;100475.13;;;21.40;55.67
64967;BME280;51710;38.732;-121.358;2022-07-29T09:17:06;100477.22;;;21.38;55.98
64967;BME280;51710;38.732;-121.358;2022-07-29T09:19:35;100478.75;;;21.34;56.11
64967;BME280;51710;38.732;-121.358;2022-07-29T09:22:03;100480.91;;;21.32;55.97
64967;BME280;51710;38.732;-121.358;2022-07-29T09:24:46;100468.38;;;21.31;56.20
64967;BME280;51710;38.732;-121.358;2022-07-29T09:27:25;100479.69;;;21.28;56.07
64967;BME280;51710;38.732;-121.358;2022-07-29T09:29:57;100469.34;;;21.25;56.37
64967;BME280;51710;38.732;-121.358;2022-07-29T09:32:24;100474.38;;;21.21;56.17
64967;BME280;51710;38.732;-121.358;2022-07-29T09:35:29;100485.91;;;21.17;56.57
64967;BME280;51710;38.732;-121.358;2022-07-29T09:37:56;100488.25;;;21.13;56.48
64967;BME280;51710;38.732;-121.358;2022-07-29T09:40:25;100498.72;;;21.10;56.74
64967;BME280;51710;38.732;-121.358;2022-07-29T09:42:52;100491.06;;;21.07;56.72
64967;BME280;51710;38.732;-121.358;2022-07-29T09:45:33;100495.28;;;21.03;56.88
64967;BME280;51710;38.732;-121.358;2022-07-29T09:48:12;100495.50;;;21.01;56.87
64967;BME280;51710;38.732;-121.358;2022-07-29T09:50:40;100488.06;;;20.97;57.19
64967;BME280;51710;38.732;-121.358;2022-07-29T09:53:08;100488.72;;;20.92;57.40
64967;BME280;51710;38.732;-121.358;2022-07-29T09:55:50;100488.38;;;20.89;57.27
64967;BME280;51710;38.732;-121.358;2022-07-29T09:58:21;100496.97;;;20.86;57.78
64967;BME280;51710;38.732;-121.358;2022-07-29T10:00:50;100505.78;;;20.81;57.70
64967;BME280;51710;38.732;-121.358;2022-07-29T10:03:18;100504.94;;;20.81;57.83
64967;BME280;51710;38.732;-121.358;2022-07-29T10:05:46;100500.59;;;20.80;57.93
64967;BME280;51710;38.732;-121.358;2022-07-29T10:08:12;100494.59;;;20.78;57.98
64967;BME280;51710;38.732;-121.358;2022-07-29T10:10:42;100505.84;;;20.75;58.09
64967;BME280;51710;38.732;-121.358;2022-07-29T10:13:13;100504.66;;;20.71;58.19
64967;BME280;51710;38.732;-121.358;2022-07-29T10:15:41;100501.38;;;20.69;58.33
64967;BME280;51710;38.732;-121.358;2022-07-29T10:18:13;100505.94;;;20.68;58.36
64967;BME280;51710;38.732;-121.358;2022-07-29T10:20:43;100507.63;;;20.69;58.32
64967;BME280;51710;38.732;-121.358;2022-07-29T10:23:09;100516.53;;;20.70;58.26
64967;BME280;51710;38.732;-121.358;2022-07-29T10:25:36;100518.06;;;20.66;58.36
64967;BME280;51710;38.732;-121.358;2022-07-29T10:28:04;100522.28;;;20.62;58.84
64967;BME280;51710;38.732;-121.358;2022-07-29T10:30:31;100522.97;;;20.57;58.71
64967;BME280;51710;38.732;-121.358;2022-07-29T10:33:05;100526.09;;;20.54;58.80
64967;BME280;51710;38.732;-121.358;2022-07-29T10:35:48;100518.69;;;20.50;58.81
64967;BME280;51710;38.732;-121.358;2022-07-29T10:44:17;100503.09;;;20.45;59.05
64967;BME280;51710;38.732;-121.358;2022-07-29T10:46:45;100507.09;;;20.43;59.04
64967;BME280;51710;38.732;-121.358;2022-07-29T10:49:24;100504.25;;;20.38;59.28
64967;BME280;51710;38.732;-121.358;2022-07-29T10:51:54;100503.50;;;20.31;59.54
64967;BME280;51710;38.732;-121.358;2022-07-29T10:57:22;100518.53;;;20.27;59.81
64967;BME280;51710;38.732;-121.358;2022-07-29T11:05:13;100518.59;;;20.20;59.78
64967;BME280;51710;38.732;-121.358;2022-07-29T11:10:39;100511.31;;;20.21;59.96
64967;BME280;51710;38.732;-121.358;2022-07-29T11:13:06;100517.78;;;20.20;59.95
64967;BME280;51710;38.732;-121.358;2022-07-29T11:16:07;100514.47;;;20.17;59.94
64967;BME280;51710;38.732;-121.358;2022-07-29T11:18:34;100516.34;;;20.17;60.21
64967;BME280;51710;38.732;-121.358;2022-07-29T11:21:00;100526.75;;;20.13;60.15
64967;BME280;51710;38.732;-121.358;2022-07-29T11:23:33;100517.91;;;20.06;60.34
64967;BME280;51710;38.732;-121.358;2022-07-29T11:29:20;100516.69;;;20.02;60.58
64967;BME280;51710;38.732;-121.358;2022-07-29T11:31:49;100517.94;;;20.00;60.36
64967;BME280;51710;38.732;-121.358;2022-07-29T11:34:26;100530.03;;;19.97;60.55
64967;BME280;51710;38.732;-121.358;2022-07-29T11:45:02;100520.09;;;19.91;60.98
64967;BME280;51710;38.732;-121.358;2022-07-29T11:47:34;100522.00;;;19.91;60.96
64967;BME280;51710;38.732;-121.358;2022-07-29T11:50:05;100518.47;;;19.90;61.18
64967;BME280;51710;38.732;-121.358;2022-07-29T11:52:36;100533.63;;;19.91;61.28
64967;BME280;51710;38.732;-121.358;2022-07-29T11:55:10;100523.88;;;19.90;61.18
64967;BME280;51710;38.732;-121.358;2022-07-29T11:57:45;100523.50;;;19.87;61.12
64967;BME280;51710;38.732;-121.358;2022-07-29T12:00:12;100530.75;;;19.86;61.17
64967;BME280;51710;38.732;-121.358;2022-07-29T12:02:46;100535.34;;;19.86;61.14
64967;BME280;51710;38.732;-121.358;2022-07-29T12:05:13;100536.16;;;19.86;61.42
64967;BME280;51710;38.732;-121.358;2022-07-29T12:07:39;100536.38;;;19.85;61.56
64967;BME280;51710;38.732;-121.358;2022-07-29T12:10:07;100540.16;;;19.84;61.68
64967;BME280;51710;38.732;-121.358;2022-07-29T12:12:34;100540.16;;;19.84;61.46
64967;BME280;51710;38.732;-121.358;2022-07-29T12:15:15;100538.47;;;19.83;61.64
64967;BME280;51710;38.732;-121.358;2022-07-29T12:17:43;100552.84;;;19.83;61.95
64967;BME280;51710;38.732;-121.358;2022-07-29T12:20:10;100539.31;;;19.83;61.68
64967;BME280;51710;38.732;-121.358;2022-07-29T12:22:38;100529.34;;;19.84;61.51
64967;BME280;51710;38.732;-121.358;2022-07-29T12:25:07;100530.59;;;19.81;61.75
64967;BME280;51710;38.732;-121.358;2022-07-29T12:27:35;100538.72;;;19.81;61.97
64967;BME280;51710;38.732;-121.358;2022-07-29T12:30:10;100534.38;;;19.80;61.75
64967;BME280;51710;38.732;-121.358;2022-07-29T12:32:41;100539.78;;;19.80;61.86
64967;BME280;51710;38.732;-121.358;2022-07-29T12:35:17;100539.78;;;19.80;62.01
64967;BME280;51710;38.732;-121.358;2022-07-29T12:37:46;100533.31;;;19.81;61.68
64967;BME280;51710;38.732;-121.358;2022-07-29T12:40:15;100543.06;;;19.82;61.89
64967;BME280;51710;38.732;-121.358;2022-07-29T12:43:07;100552.22;;;19.81;61.91
64967;BME280;51710;38.732;-121.358;2022-07-29T12:45:36;100552.84;;;19.83;61.93
64967;BME280;51710;38.732;-121.358;2022-07-29T12:48:03;100552.22;;;19.81;61.95
64967;BME280;51710;38.732;-121.358;2022-07-29T12:50:29;100558.69;;;19.80;61.93
64967;BME280;51710;38.732;-121.358;2022-07-29T12:53:11;100563.50;;;19.78;61.90
64967;BME280;51710;38.732;-121.358;2022-07-29T12:55:50;100557.25;;;19.78;62.23
64967;BME280;51710;38.732;-121.358;2022-07-29T12:58:46;100549.38;;;19.76;62.05
64967;BME280;51710;38.732;-121.358;2022-07-29T13:01:15;100548.53;;;19.76;61.96
64967;BME280;51710;38.732;-121.358;2022-07-29T13:03:48;100563.91;;;19.75;62.15
64967;BME280;51710;38.732;-121.358;2022-07-29T13:11:41;100549.63;;;19.68;62.17
64967;BME280;51710;38.732;-121.358;2022-07-29T13:19:46;100558.19;;;19.65;62.45
64967;BME280;51710;38.732;-121.358;2022-07-29T13:22:16;100555.47;;;19.65;62.24
64967;BME280;51710;38.732;-121.358;2022-07-29T13:27:21;100570.66;;;19.66;62.59